Главная страница
METAR-TAF:

METAR-TAF

Аэропорты :

Балтимор-Вашингтон

Балтимор, Мэриленд, США

широта: 39-10-00N, долгота: 076-41-00W, высота над уровнем моря: 44 м

Текущие метеонаблюдения

Эта сводка был подготовлена 17 минут назад, в 00:54 UTC
Штиль
Температура 17°C
Влажность 48%
Давление 1011 hPa
Видимость: 16.1 км
небольшая облачность на высоте 12000 фута
Рассеянная облачность на высоте 16000 фута
Рассеянная облачность на высоте 25000 фута

METAR: KBWI 250054Z 00000KT 10SM FEW120 BKN160 BKN250 17/06 A2986 RMK AO2 SLP110 T01670056

Время: 21:11 (01:11 UTC)

Прогноз

Эта сводка был подготовлена 1 час и 44 минут назад, в 23:27 UTC
Прогноз действительный с 24-го 23 UTC до 25-го 24 UTC
Ветер 6 Узел от северо-западный
Видимость: 10 км
Отдельные облака на высоте 15000 фута
С 25-го 0700 UTC
Ветер 3 Узел переменных направлений
Видимость: 10 км
Рассеянная облачность на высоте 6000 фута

TAF: KBWI 242327Z 2423/2524 31006KT P6SM SCT150 FM250700 VRB03KT P6SM BKN060

Метеонаблюдения и прогнозы для более 4000 аэропортов (сводки METAR и TAF).

Имеющиеся станции представлены на карте желтыми и красными точками.

Чтобы увидеть название станции, наведите на нее мышь.

Затем щелкните, чтобы увидеть метеонаблюдения и метеопрогнозы.

Управление картой: чтобы увеличить масштаб, щелкните зеленые кнопки с черным крестиком; чтобы уменьшить масштаб, щелкните зеленую кнопку с тире; для просмотра соседних карт щелкайте зеленые стрелки.


METAR-TAF: